sensor_id;sensor_type;location;lat;lon;timestamp;pressure;altitude;pressure_sealevel;temperature;humidity
41218;BME280;26950;50.960;7.138;2022-08-01T00:02:15;100580.06;;;28.27;51.88
41218;BME280;26950;50.960;7.138;2022-08-01T00:04:42;100577.44;;;28.26;52.00
41218;BME280;26950;50.960;7.138;2022-08-01T00:07:08;100581.28;;;28.20;52.11
41218;BME280;26950;50.960;7.138;2022-08-01T00:09:34;100582.84;;;28.26;52.02
41218;BME280;26950;50.960;7.138;2022-08-01T00:12:03;100581.81;;;28.28;51.70
41218;BME280;26950;50.960;7.138;2022-08-01T00:14:30;100577.63;;;28.21;52.01
41218;BME280;26950;50.960;7.138;2022-08-01T00:16:56;100574.94;;;28.21;51.73
41218;BME280;26950;50.960;7.138;2022-08-01T00:19:22;100580.88;;;28.09;51.94
41218;BME280;26950;50.960;7.138;2022-08-01T00:21:49;100584.53;;;28.08;52.42
41218;BME280;26950;50.960;7.138;2022-08-01T00:24:15;100588.34;;;28.04;52.06
41218;BME280;26950;50.960;7.138;2022-08-01T00:26:42;100586.25;;;28.10;51.97
41218;BME280;26950;50.960;7.138;2022-08-01T00:29:09;100589.13;;;28.06;51.60
41218;BME280;26950;50.960;7.138;2022-08-01T00:31:36;100586.94;;;27.53;52.54
41218;BME280;26950;50.960;7.138;2022-08-01T00:34:02;100584.19;;;27.54;52.63
41218;BME280;26950;50.960;7.138;2022-08-01T00:36:29;100592.84;;;27.83;51.01
41218;BME280;26950;50.960;7.138;2022-08-01T00:38:55;100587.28;;;27.65;51.23
41218;BME280;26950;50.960;7.138;2022-08-01T00:41:22;100588.47;;;27.80;50.69
41218;BME280;26950;50.960;7.138;2022-08-01T00:43:48;100589.44;;;27.79;50.86
41218;BME280;26950;50.960;7.138;2022-08-01T00:46:16;100584.69;;;27.84;50.67
41218;BME280;26950;50.960;7.138;2022-08-01T00:48:42;100586.50;;;27.84;50.31
41218;BME280;26950;50.960;7.138;2022-08-01T00:51:09;100591.97;;;27.82;50.45
41218;BME280;26950;50.960;7.138;2022-08-01T00:53:36;100580.59;;;27.76;50.50
41218;BME280;26950;50.960;7.138;2022-08-01T00:56:03;100589.44;;;27.79;50.51
41218;BME280;26950;50.960;7.138;2022-08-01T00:58:30;100588.88;;;27.71;50.67
41218;BME280;26950;50.960;7.138;2022-08-01T01:00:57;100584.56;;;27.45;51.91
41218;BME280;26950;50.960;7.138;2022-08-01T01:03:25;100587.94;;;27.50;51.54
41218;BME280;26950;50.960;7.138;2022-08-01T01:06:11;100587.50;;;27.61;50.98
41218;BME280;26950;50.960;7.138;2022-08-01T01:08:42;100587.34;;;27.64;51.37
41218;BME280;26950;50.960;7.138;2022-08-01T01:11:13;100583.16;;;27.57;51.08
41218;BME280;26950;50.960;7.138;2022-08-01T01:13:48;100589.44;;;27.57;51.21
41218;BME280;26950;50.960;7.138;2022-08-01T01:16:18;100585.78;;;27.58;51.22
41218;BME280;26950;50.960;7.138;2022-08-01T01:18:47;100589.50;;;27.56;51.61
41218;BME280;26950;50.960;7.138;2022-08-01T01:24:19;100588.91;;;27.49;51.85
41218;BME280;26950;50.960;7.138;2022-08-01T01:26:53;100584.31;;;27.51;51.97
41218;BME280;26950;50.960;7.138;2022-08-01T01:29:25;100592.47;;;27.50;51.87
41218;BME280;26950;50.960;7.138;2022-08-01T01:31:58;100593.41;;;27.49;51.98
41218;BME280;26950;50.960;7.138;2022-08-01T01:34:28;100598.63;;;27.53;52.06
41218;BME280;26950;50.960;7.138;2022-08-01T01:36:58;100586.81;;;26.90;53.60
41218;BME280;26950;50.960;7.138;2022-08-01T01:39:26;100585.44;;;27.46;52.23
41218;BME280;26950;50.960;7.138;2022-08-01T01:41:56;100591.66;;;27.48;51.96
41218;BME280;26950;50.960;7.138;2022-08-01T01:44:26;100597.47;;;26.93;53.69
41218;BME280;26950;50.960;7.138;2022-08-01T01:46:53;100600.91;;;27.40;52.23
41218;BME280;26950;50.960;7.138;2022-08-01T01:49:25;100597.69;;;27.32;52.81
41218;BME280;26950;50.960;7.138;2022-08-01T01:51:54;100599.59;;;27.51;52.05
41218;BME280;26950;50.960;7.138;2022-08-01T01:54:22;100605.13;;;27.48;52.23
41218;BME280;26950;50.960;7.138;2022-08-01T01:56:50;100606.06;;;27.47;52.09
41218;BME280;26950;50.960;7.138;2022-08-01T01:59:19;100595.41;;;27.43;52.13
41218;BME280;26950;50.960;7.138;2022-08-01T02:01:49;100597.31;;;27.41;52.27
41218;BME280;26950;50.960;7.138;2022-08-01T02:04:18;100602.81;;;27.38;52.31
41218;BME280;26950;50.960;7.138;2022-08-01T02:06:46;100596.72;;;27.33;52.62
41218;BME280;26950;50.960;7.138;2022-08-01T02:09:15;100593.94;;;27.36;51.99
41218;BME280;26950;50.960;7.138;2022-08-01T02:11:44;100591.97;;;27.40;52.24
41218;BME280;26950;50.960;7.138;2022-08-01T02:14:12;100598.19;;;27.42;51.97
41218;BME280;26950;50.960;7.138;2022-08-01T02:16:41;100600.81;;;27.43;52.04
41218;BME280;26950;50.960;7.138;2022-08-01T02:19:10;100594.63;;;27.41;51.95
41218;BME280;26950;50.960;7.138;2022-08-01T02:21:39;100583.22;;;27.35;52.32
41218;BME280;26950;50.960;7.138;2022-08-01T02:24:12;100584.97;;;27.36;52.17
41218;BME280;26950;50.960;7.138;2022-08-01T02:26:44;100586.72;;;27.37;51.76
41218;BME280;26950;50.960;7.138;2022-08-01T02:29:15;100590.69;;;27.28;51.96
41218;BME280;26950;50.960;7.138;2022-08-01T02:31:44;100584.38;;;27.28;51.82
41218;BME280;26950;50.960;7.138;2022-08-01T02:34:17;100586.16;;;27.29;51.92
41218;BME280;26950;50.960;7.138;2022-08-01T02:36:46;100589.56;;;27.12;52.25
41218;BME280;26950;50.960;7.138;2022-08-01T02:39:14;100589.13;;;27.23;51.68
41218;BME280;26950;50.960;7.138;2022-08-01T02:41:45;100585.41;;;27.25;51.80
41218;BME280;26950;50.960;7.138;2022-08-01T02:44:16;100588.09;;;27.25;51.66
41218;BME280;26950;50.960;7.138;2022-08-01T02:46:49;100580.97;;;27.24;51.73
41218;BME280;26950;50.960;7.138;2022-08-01T02:49:19;100583.78;;;27.21;51.74
41218;BME280;26950;50.960;7.138;2022-08-01T02:51:48;100581.22;;;27.18;52.24
41218;BME280;26950;50.960;7.138;2022-08-01T02:54:16;100585.56;;;27.22;51.67
41218;BME280;26950;50.960;7.138;2022-08-01T02:56:44;100575.56;;;27.24;51.72
41218;BME280;26950;50.960;7.138;2022-08-01T02:59:15;100576.81;;;26.72;53.07
41218;BME280;26950;50.960;7.138;2022-08-01T03:01:44;100574.19;;;27.14;52.15
41218;BME280;26950;50.960;7.138;2022-08-01T03:04:11;100573.88;;;27.22;51.96
41218;BME280;26950;50.960;7.138;2022-08-01T03:06:40;100582.34;;;26.67;53.57
41218;BME280;26950;50.960;7.138;2022-08-01T03:09:08;100585.28;;;27.06;52.40
41218;BME280;26950;50.960;7.138;2022-08-01T03:11:37;100578.72;;;27.13;51.88
41218;BME280;26950;50.960;7.138;2022-08-01T03:14:07;100578.38;;;27.21;51.98
41218;BME280;26950;50.960;7.138;2022-08-01T03:16:38;100588.25;;;27.22;51.94
41218;BME280;26950;50.960;7.138;2022-08-01T03:19:05;100588.25;;;27.22;52.06
41218;BME280;26950;50.960;7.138;2022-08-01T03:21:34;100594.59;;;26.98;52.83
41218;BME280;26950;50.960;7.138;2022-08-01T03:24:03;100592.94;;;27.17;52.25
41218;BME280;26950;50.960;7.138;2022-08-01T03:26:34;100590.44;;;27.12;52.38
41218;BME280;26950;50.960;7.138;2022-08-01T03:29:04;100589.38;;;27.17;52.13
41218;BME280;26950;50.960;7.138;2022-08-01T03:31:33;100587.63;;;27.15;52.18
41218;BME280;26950;50.960;7.138;2022-08-01T03:34:01;100593.00;;;27.15;52.20
41218;BME280;26950;50.960;7.138;2022-08-01T03:36:28;100591.47;;;27.08;52.14
41218;BME280;26950;50.960;7.138;2022-08-01T03:38:58;100596.19;;;27.03;52.48
41218;BME280;26950;50.960;7.138;2022-08-01T03:41:31;100596.75;;;27.11;52.14
41218;BME280;26950;50.960;7.138;2022-08-01T03:44:02;100599.13;;;27.19;51.69
41218;BME280;26950;50.960;7.138;2022-08-01T03:46:35;100599.13;;;27.19;51.72
41218;BME280;26950;50.960;7.138;2022-08-01T03:49:06;100600.81;;;27.22;51.75
41218;BME280;26950;50.960;7.138;2022-08-01T03:51:34;100600.78;;;27.23;51.41
41218;BME280;26950;50.960;7.138;2022-08-01T03:54:04;100597.13;;;27.24;51.33
41218;BME280;26950;50.960;7.138;2022-08-01T03:56:33;100596.38;;;27.21;51.58
41218;BME280;26950;50.960;7.138;2022-08-01T03:59:00;100597.47;;;27.17;51.54
41218;BME280;26950;50.960;7.138;2022-08-01T04:01:28;100604.44;;;27.21;51.38
41218;BME280;26950;50.960;7.138;2022-08-01T04:03:58;100597.31;;;27.20;51.46
41218;BME280;26950;50.960;7.138;2022-08-01T04:06:24;100603.56;;;27.20;51.48
41218;BME280;26950;50.960;7.138;2022-08-01T04:08:51;100600.00;;;27.20;51.32
41218;BME280;26950;50.960;7.138;2022-08-01T04:11:22;100600.00;;;27.20;51.30
41218;BME280;26950;50.960;7.138;2022-08-01T04:13:50;100599.28;;;27.16;51.21
41218;BME280;26950;50.960;7.138;2022-08-01T04:16:17;100600.88;;;27.20;51.20
41218;BME280;26950;50.960;7.138;2022-08-01T04:18:43;100602.06;;;27.13;51.73
41218;BME280;26950;50.960;7.138;2022-08-01T04:21:10;100601.75;;;27.21;51.55
41218;BME280;26950;50.960;7.138;2022-08-01T04:23:39;100605.31;;;27.21;51.45
41218;BME280;26950;50.960;7.138;2022-08-01T04:26:07;100599.28;;;27.16;51.47
41218;BME280;26950;50.960;7.138;2022-08-01T04:28:36;100609.22;;;27.14;51.79
41218;BME280;26950;50.960;7.138;2022-08-01T04:31:08;100610.06;;;27.16;51.61
41218;BME280;26950;50.960;7.138;2022-08-01T04:33:37;100606.53;;;27.14;51.43
41218;BME280;26950;50.960;7.138;2022-08-01T04:36:06;100607.13;;;26.99;52.08
41218;BME280;26950;50.960;7.138;2022-08-01T04:38:35;100610.16;;;27.13;51.71
41218;BME280;26950;50.960;7.138;2022-08-01T04:41:04;100612.69;;;27.18;51.73
41218;BME280;26950;50.960;7.138;2022-08-01T04:43:33;100604.53;;;27.19;51.55
41218;BME280;26950;50.960;7.138;2022-08-01T04:46:00;100611.41;;;27.26;51.48
41218;BME280;26950;50.960;7.138;2022-08-01T04:48:31;100615.31;;;27.19;51.48
41218;BME280;26950;50.960;7.138;2022-08-01T04:50:58;100619.03;;;27.15;51.75
41218;BME280;26950;50.960;7.138;2022-08-01T04:53:24;100629.78;;;27.17;51.81
41218;BME280;26950;50.960;7.138;2022-08-01T04:55:52;100623.38;;;27.19;51.57
41218;BME280;26950;50.960;7.138;2022-08-01T04:58:19;100630.75;;;27.14;51.55
41218;BME280;26950;50.960;7.138;2022-08-01T05:00:46;100628.59;;;27.24;51.56
41218;BME280;26950;50.960;7.138;2022-08-01T05:03:12;100634.78;;;27.02;52.23
41218;BME280;26950;50.960;7.138;2022-08-01T05:05:40;100635.81;;;27.23;51.94
41218;BME280;26950;50.960;7.138;2022-08-01T05:08:07;100632.16;;;27.24;51.54
41218;BME280;26950;50.960;7.138;2022-08-01T05:10:33;100636.59;;;27.25;51.89
41218;BME280;26950;50.960;7.138;2022-08-01T05:13:00;100633.16;;;27.22;51.70
41218;BME280;26950;50.960;7.138;2022-08-01T05:15:26;100637.63;;;27.23;51.72
41218;BME280;26950;50.960;7.138;2022-08-01T05:17:53;100636.53;;;27.27;51.70
41218;BME280;26950;50.960;7.138;2022-08-01T05:20:19;100639.47;;;27.21;51.97
41218;BME280;26950;50.960;7.138;2022-08-01T05:22:47;100637.66;;;27.21;51.92
41218;BME280;26950;50.960;7.138;2022-08-01T05:25:14;100640.25;;;27.24;52.16
41218;BME280;26950;50.960;7.138;2022-08-01T05:27:40;100631.28;;;27.24;52.14
41218;BME280;26950;50.960;7.138;2022-08-01T05:30:08;100640.25;;;27.24;51.94
41218;BME280;26950;50.960;7.138;2022-08-01T05:32:35;100638.19;;;27.31;52.13
41218;BME280;26950;50.960;7.138;2022-08-01T05:35:02;100636.50;;;27.28;52.32
41218;BME280;26950;50.960;7.138;2022-08-01T05:37:29;100645.31;;;27.32;51.89
41218;BME280;26950;50.960;7.138;2022-08-01T05:39:56;100641.88;;;27.28;51.96
41218;BME280;26950;50.960;7.138;2022-08-01T05:42:23;100638.88;;;27.36;51.97
41218;BME280;26950;50.960;7.138;2022-08-01T05:44:49;100644.13;;;27.39;52.05
41218;BME280;26950;50.960;7.138;2022-08-01T05:47:16;100657.66;;;27.37;51.81
41218;BME280;26950;50.960;7.138;2022-08-01T05:49:43;100654.78;;;27.42;51.66
41218;BME280;26950;50.960;7.138;2022-08-01T05:52:09;100654.81;;;27.40;51.63
41218;BME280;26950;50.960;7.138;2022-08-01T05:54:36;100653.03;;;27.41;51.64
41218;BME280;26950;50.960;7.138;2022-08-01T05:57:04;100648.53;;;27.41;51.66
41218;BME280;26950;50.960;7.138;2022-08-01T05:59:31;100652.66;;;27.28;52.27
41218;BME280;26950;50.960;7.138;2022-08-01T06:01:57;100654.78;;;27.42;51.98
41218;BME280;26950;50.960;7.138;2022-08-01T06:04:24;100661.13;;;27.41;51.87
41218;BME280;26950;50.960;7.138;2022-08-01T06:06:50;100659.16;;;27.45;51.50
41218;BME280;26950;50.960;7.138;2022-08-01T06:09:16;100656.28;;;27.49;51.64
41218;BME280;26950;50.960;7.138;2022-08-01T06:11:43;100660.66;;;27.52;51.27
41218;BME280;26950;50.960;7.138;2022-08-01T06:14:11;100662.28;;;27.56;51.23
41218;BME280;26950;50.960;7.138;2022-08-01T06:16:37;100662.22;;;27.57;51.64
41218;BME280;26950;50.960;7.138;2022-08-01T06:19:03;100656.59;;;27.41;51.88
41218;BME280;26950;50.960;7.138;2022-08-01T06:21:30;100654.78;;;27.20;52.58
41218;BME280;26950;50.960;7.138;2022-08-01T06:23:56;100655.34;;;27.50;51.94
41218;BME280;26950;50.960;7.138;2022-08-01T06:26:23;100657.78;;;27.56;51.61
41218;BME280;26950;50.960;7.138;2022-08-01T06:28:49;100652.38;;;27.56;51.81
41218;BME280;26950;50.960;7.138;2022-08-01T06:31:17;100656.09;;;27.54;52.13
41218;BME280;26950;50.960;7.138;2022-08-01T06:33:43;100655.59;;;26.99;53.24
41218;BME280;26950;50.960;7.138;2022-08-01T06:36:10;100661.56;;;27.30;52.41
41218;BME280;26950;50.960;7.138;2022-08-01T06:38:37;100663.91;;;27.38;52.41
41218;BME280;26950;50.960;7.138;2022-08-01T06:41:03;100661.59;;;27.51;51.97
41218;BME280;26950;50.960;7.138;2022-08-01T06:43:30;100663.81;;;27.41;52.74
41218;BME280;26950;50.960;7.138;2022-08-01T06:45:57;100661.22;;;27.60;51.91
41218;BME280;26950;50.960;7.138;2022-08-01T06:48:25;100664.03;;;27.13;52.67
41218;BME280;26950;50.960;7.138;2022-08-01T06:50:51;100663.25;;;27.55;52.06
41218;BME280;26950;50.960;7.138;2022-08-01T06:53:32;100653.25;;;27.57;51.88
41218;BME280;26950;50.960;7.138;2022-08-01T06:55:59;100651.19;;;27.63;51.70
41218;BME280;26950;50.960;7.138;2022-08-01T06:58:25;100655.28;;;27.74;50.96
41218;BME280;26950;50.960;7.138;2022-08-01T07:00:52;100662.63;;;27.70;51.21
41218;BME280;26950;50.960;7.138;2022-08-01T07:03:18;100663.56;;;27.69;50.95
41218;BME280;26950;50.960;7.138;2022-08-01T07:05:46;100661.84;;;27.45;51.60
41218;BME280;26950;50.960;7.138;2022-08-01T07:08:12;100653.81;;;27.65;50.79
41218;BME280;26950;50.960;7.138;2022-08-01T07:10:39;100658.59;;;27.36;51.59
41218;BME280;26950;50.960;7.138;2022-08-01T07:13:05;100656.56;;;27.63;51.06
41218;BME280;26950;50.960;7.138;2022-08-01T07:15:32;100660.41;;;27.58;51.39
41218;BME280;26950;50.960;7.138;2022-08-01T07:17:58;100657.34;;;27.67;51.07
41218;BME280;26950;50.960;7.138;2022-08-01T07:20:26;100672.34;;;27.74;50.50
41218;BME280;26950;50.960;7.138;2022-08-01T07:22:54;100666.75;;;27.57;50.74
41218;BME280;26950;50.960;7.138;2022-08-01T07:25:20;100665.06;;;27.10;51.76
41218;BME280;26950;50.960;7.138;2022-08-01T07:27:47;100671.75;;;27.66;50.17
41218;BME280;26950;50.960;7.138;2022-08-01T07:30:13;100670.75;;;27.47;50.61
41218;BME280;26950;50.960;7.138;2022-08-01T07:32:40;100671.53;;;27.72;50.18
41218;BME280;26950;50.960;7.138;2022-08-01T07:35:07;100667.94;;;27.72;50.28
41218;BME280;26950;50.960;7.138;2022-08-01T07:37:33;100677.09;;;27.67;50.73
41218;BME280;26950;50.960;7.138;2022-08-01T07:40:01;100675.94;;;27.07;51.62
41218;BME280;26950;50.960;7.138;2022-08-01T07:42:29;100674.13;;;27.52;50.69
41218;BME280;26950;50.960;7.138;2022-08-01T07:44:55;100675.22;;;27.69;49.89
41218;BME280;26950;50.960;7.138;2022-08-01T07:47:23;100679.34;;;27.78;49.75
41218;BME280;26950;50.960;7.138;2022-08-01T07:49:50;100668.16;;;27.87;49.25
41218;BME280;26950;50.960;7.138;2022-08-01T07:52:17;100680.63;;;27.90;49.16
41218;BME280;26950;50.960;7.138;2022-08-01T07:54:43;100687.00;;;27.67;49.92
41218;BME280;26950;50.960;7.138;2022-08-01T07:57:11;100684.00;;;27.75;49.62
41218;BME280;26950;50.960;7.138;2022-08-01T07:59:37;100686.88;;;27.92;49.04
41218;BME280;26950;50.960;7.138;2022-08-01T08:02:04;100679.31;;;27.12;50.19
41218;BME280;26950;50.960;7.138;2022-08-01T08:04:30;100690.13;;;27.34;49.92
41218;BME280;26950;50.960;7.138;2022-08-01T08:06:57;100690.13;;;27.78;48.86
41218;BME280;26950;50.960;7.138;2022-08-01T08:09:23;100684.16;;;27.92;48.56
41218;BME280;26950;50.960;7.138;2022-08-01T08:11:49;100691.78;;;28.03;47.98
41218;BME280;26950;50.960;7.138;2022-08-01T08:14:18;100690.72;;;28.07;48.10
41218;BME280;26950;50.960;7.138;2022-08-01T08:16:45;100699.25;;;27.96;48.16
41218;BME280;26950;50.960;7.138;2022-08-01T08:19:11;100696.78;;;28.12;47.73
41218;BME280;26950;50.960;7.138;2022-08-01T08:21:38;100690.59;;;28.10;47.27
41218;BME280;26950;50.960;7.138;2022-08-01T08:24:05;100693.94;;;28.15;46.83
41218;BME280;26950;50.960;7.138;2022-08-01T08:26:47;100694.16;;;28.10;46.93
41218;BME280;26950;50.960;7.138;2022-08-01T08:29:14;100686.88;;;28.12;47.02
41218;BME280;26950;50.960;7.138;2022-08-01T08:31:41;100696.44;;;28.19;47.39
41218;BME280;26950;50.960;7.138;2022-08-01T08:34:08;100692.34;;;27.68;48.47
41218;BME280;26950;50.960;7.138;2022-08-01T08:36:35;100687.91;;;28.10;47.52
41218;BME280;26950;50.960;7.138;2022-08-01T08:39:01;100688.44;;;28.18;47.23
41218;BME280;26950;50.960;7.138;2022-08-01T08:41:29;100693.28;;;28.30;46.80
41218;BME280;26950;50.960;7.138;2022-08-01T08:43:55;100696.09;;;28.07;47.11
41218;BME280;26950;50.960;7.138;2022-08-01T08:46:23;100702.81;;;27.76;47.48
41218;BME280;26950;50.960;7.138;2022-08-01T08:48:52;100704.28;;;28.26;46.78
41218;BME280;26950;50.960;7.138;2022-08-01T08:51:19;100703.41;;;28.45;46.53
41218;BME280;26950;50.960;7.138;2022-08-01T08:53:47;100705.63;;;28.56;45.55
41218;BME280;26950;50.960;7.138;2022-08-01T08:56:14;100697.47;;;28.58;45.74
41218;BME280;26950;50.960;7.138;2022-08-01T08:58:43;100709.34;;;28.33;46.12
41218;BME280;26950;50.960;7.138;2022-08-01T09:01:11;100708.13;;;28.61;46.07
41218;BME280;26950;50.960;7.138;2022-08-01T09:03:39;100711.06;;;28.75;45.39
41218;BME280;26950;50.960;7.138;2022-08-01T09:06:07;100711.75;;;28.60;45.54
41218;BME280;26950;50.960;7.138;2022-08-01T09:08:33;100711.50;;;28.25;46.12
41218;BME280;26950;50.960;7.138;2022-08-01T09:11:00;100715.38;;;28.60;45.39
41218;BME280;26950;50.960;7.138;2022-08-01T09:13:26;100715.13;;;28.65;45.54
41218;BME280;26950;50.960;7.138;2022-08-01T09:15:55;100716.28;;;28.59;46.15
41218;BME280;26950;50.960;7.138;2022-08-01T09:18:29;100712.97;;;28.73;45.53
41218;BME280;26950;50.960;7.138;2022-08-01T09:21:16;100713.56;;;28.80;45.41
41218;BME280;26950;50.960;7.138;2022-08-01T09:23:45;100709.63;;;28.87;44.88
41218;BME280;26950;50.960;7.138;2022-08-01T09:26:14;100717.41;;;28.94;44.88
41218;BME280;26950;50.960;7.138;2022-08-01T09:28:42;100728.66;;;28.44;45.49
41218;BME280;26950;50.960;7.138;2022-08-01T09:31:11;100729.78;;;28.80;45.00
41218;BME280;26950;50.960;7.138;2022-08-01T09:33:52;100721.44;;;28.84;44.16
41218;BME280;26950;50.960;7.138;2022-08-01T09:36:23;100724.09;;;28.86;44.31
41218;BME280;26950;50.960;7.138;2022-08-01T09:38:50;100721.41;;;28.86;44.40
41218;BME280;26950;50.960;7.138;2022-08-01T09:41:17;100722.66;;;28.97;44.49
41218;BME280;26950;50.960;7.138;2022-08-01T09:43:54;100725.22;;;29.00;44.63
41218;BME280;26950;50.960;7.138;2022-08-01T09:46:20;100729.09;;;29.14;44.08
41218;BME280;26950;50.960;7.138;2022-08-01T09:48:58;100720.88;;;29.17;43.46
41218;BME280;26950;50.960;7.138;2022-08-01T09:51:31;100718.22;;;29.15;43.50
41218;BME280;26950;50.960;7.138;2022-08-01T09:54:00;100712.81;;;29.15;42.89
41218;BME280;26950;50.960;7.138;2022-08-01T09:56:36;100714.50;;;29.18;42.45
41218;BME280;26950;50.960;7.138;2022-08-01T09:59:02;100717.63;;;29.09;42.37
41218;BME280;26950;50.960;7.138;2022-08-01T10:01:42;100713.19;;;29.08;42.80
41218;BME280;26950;50.960;7.138;2022-08-01T10:04:11;100723.28;;;29.04;42.78
41218;BME280;26950;50.960;7.138;2022-08-01T10:06:40;100714.63;;;28.96;43.48
41218;BME280;26950;50.960;7.138;2022-08-01T10:09:08;100715.13;;;28.85;43.55
41218;BME280;26950;50.960;7.138;2022-08-01T10:11:36;100725.72;;;28.69;44.10
41218;BME280;26950;50.960;7.138;2022-08-01T10:14:05;100715.81;;;28.70;43.62
41218;BME280;26950;50.960;7.138;2022-08-01T10:16:33;100710.69;;;29.22;42.91
41218;BME280;26950;50.960;7.138;2022-08-01T10:19:01;100704.69;;;29.34;42.32
41218;BME280;26950;50.960;7.138;2022-08-01T10:21:30;100705.56;;;28.97;42.58
41218;BME280;26950;50.960;7.138;2022-08-01T10:24:01;100704.69;;;29.34;42.14
41218;BME280;26950;50.960;7.138;2022-08-01T10:26:29;100704.09;;;29.27;42.57
41218;BME280;26950;50.960;7.138;2022-08-01T10:28:58;100706.66;;;29.49;42.28
41218;BME280;26950;50.960;7.138;2022-08-01T10:31:24;100706.38;;;29.55;42.53
41218;BME280;26950;50.960;7.138;2022-08-01T10:33:51;100698.38;;;29.71;42.02
41218;BME280;26950;50.960;7.138;2022-08-01T10:36:19;100703.47;;;29.77;41.57
41218;BME280;26950;50.960;7.138;2022-08-01T10:38:46;100696.31;;;29.76;41.31
41218;BME280;26950;50.960;7.138;2022-08-01T10:41:15;100700.94;;;29.92;40.55
41218;BME280;26950;50.960;7.138;2022-08-01T10:43:42;100700.94;;;30.09;40.06
41218;BME280;26950;50.960;7.138;2022-08-01T10:46:09;100693.59;;;30.13;40.01
41218;BME280;26950;50.960;7.138;2022-08-01T10:48:41;100684.56;;;30.29;39.99
41218;BME280;26950;50.960;7.138;2022-08-01T10:51:09;100686.97;;;29.65;40.26
41218;BME280;26950;50.960;7.138;2022-08-01T10:53:35;100690.72;;;29.62;40.38
41218;BME280;26950;50.960;7.138;2022-08-01T10:56:03;100695.00;;;29.30;41.76
41218;BME280;26950;50.960;7.138;2022-08-01T10:58:34;100698.22;;;29.92;40.22
41218;BME280;26950;50.960;7.138;2022-08-01T11:01:15;100693.31;;;30.00;40.58
41218;BME280;26950;50.960;7.138;2022-08-01T11:03:43;100691.31;;;30.03;40.46
41218;BME280;26950;50.960;7.138;2022-08-01T11:06:16;100698.38;;;30.25;40.24
41218;BME280;26950;50.960;7.138;2022-08-01T11:08:50;100686.69;;;30.57;39.68
41218;BME280;26950;50.960;7.138;2022-08-01T11:11:18;100687.44;;;30.44;39.89
41218;BME280;26950;50.960;7.138;2022-08-01T11:14:03;100679.31;;;30.77;38.56
41218;BME280;26950;50.960;7.138;2022-08-01T11:16:37;100674.44;;;30.68;38.66
41218;BME280;26950;50.960;7.138;2022-08-01T11:19:05;100679.75;;;30.85;38.30
41218;BME280;26950;50.960;7.138;2022-08-01T11:21:57;100682.13;;;30.91;38.92
41218;BME280;26950;50.960;7.138;2022-08-01T11:24:54;100679.44;;;30.91;38.58
41218;BME280;26950;50.960;7.138;2022-08-01T11:27:25;100676.56;;;30.94;38.48
41218;BME280;26950;50.960;7.138;2022-08-01T11:30:25;100674.19;;;30.88;38.06
41218;BME280;26950;50.960;7.138;2022-08-01T11:32:53;100671.81;;;30.82;38.07
41218;BME280;26950;50.960;7.138;2022-08-01T11:35:22;100659.94;;;30.51;38.23
41218;BME280;26950;50.960;7.138;2022-08-01T11:37:50;100666.44;;;31.13;37.28
41218;BME280;26950;50.960;7.138;2022-08-01T11:40:19;100656.09;;;31.20;37.56
41218;BME280;26950;50.960;7.138;2022-08-01T11:42:45;100665.00;;;31.22;37.29
41218;BME280;26950;50.960;7.138;2022-08-01T11:45:12;100666.72;;;30.08;37.45
41218;BME280;26950;50.960;7.138;2022-08-01T11:47:44;100675.44;;;30.15;37.19
41218;BME280;26950;50.960;7.138;2022-08-01T11:50:33;100666.22;;;30.52;36.76
41218;BME280;26950;50.960;7.138;2022-08-01T11:53:02;100672.94;;;30.78;36.34
41218;BME280;26950;50.960;7.138;2022-08-01T11:55:29;100662.19;;;30.92;36.10
41218;BME280;26950;50.960;7.138;2022-08-01T11:57:59;100656.28;;;31.01;36.05
41218;BME280;26950;50.960;7.138;2022-08-01T12:00:26;100665.88;;;30.91;36.11
41218;BME280;26950;50.960;7.138;2022-08-01T12:02:58;100660.97;;;30.98;36.26
41218;BME280;26950;50.960;7.138;2022-08-01T12:05:26;100664.91;;;30.92;36.35
41218;BME280;26950;50.960;7.138;2022-08-01T12:07:53;100665.34;;;30.69;36.86
41218;BME280;26950;50.960;7.138;2022-08-01T12:10:22;100668.50;;;30.77;36.86
41218;BME280;26950;50.960;7.138;2022-08-01T12:12:51;100669.44;;;30.76;36.90
41218;BME280;26950;50.960;7.138;2022-08-01T12:15:19;100667.63;;;30.76;36.52
41218;BME280;26950;50.960;7.138;2022-08-01T12:17:47;100676.53;;;30.78;36.47
41218;BME280;26950;50.960;7.138;2022-08-01T12:20:19;100673.28;;;30.72;36.95
41218;BME280;26950;50.960;7.138;2022-08-01T12:22:46;100669.59;;;30.22;37.28
41218;BME280;26950;50.960;7.138;2022-08-01T12:25:14;100662.75;;;30.66;36.77
41218;BME280;26950;50.960;7.138;2022-08-01T12:27:43;100660.78;;;30.69;37.24
41218;BME280;26950;50.960;7.138;2022-08-01T12:30:12;100667.19;;;30.68;35.97
41218;BME280;26950;50.960;7.138;2022-08-01T12:32:41;100663.94;;;30.77;35.79
41218;BME280;26950;50.960;7.138;2022-08-01T12:35:09;100671.09;;;30.45;36.15
41218;BME280;26950;50.960;7.138;2022-08-01T12:37:41;100677.41;;;30.79;35.83
41218;BME280;26950;50.960;7.138;2022-08-01T12:40:10;100681.25;;;30.75;36.08
41218;BME280;26950;50.960;7.138;2022-08-01T12:42:37;100684.75;;;30.77;35.99
41218;BME280;26950;50.960;7.138;2022-08-01T12:45:06;100680.44;;;30.73;36.08
41218;BME280;26950;50.960;7.138;2022-08-01T12:47:34;100667.94;;;30.70;36.22
41218;BME280;26950;50.960;7.138;2022-08-01T12:50:02;100676.09;;;30.70;36.23
41218;BME280;26950;50.960;7.138;2022-08-01T12:52:29;100669.75;;;30.87;35.90
41218;BME280;26950;50.960;7.138;2022-08-01T12:55:03;100678.66;;;30.89;35.63
41218;BME280;26950;50.960;7.138;2022-08-01T12:57:31;100666.66;;;30.77;35.60
41218;BME280;26950;50.960;7.138;2022-08-01T13:00:06;100662.00;;;30.46;35.95
41218;BME280;26950;50.960;7.138;2022-08-01T13:02:33;100670.97;;;30.14;35.98